Time;durP1;ratioP1;P1;durP2;ratioP2;P2;SDS_P1;SDS_P2;PMS_P1;PMS_P2;Temp;Humidity;BMP_temperature;BMP_pressure;BME280_temperature;BME280_humidity;BME280_pressure;Samples;Min_cycle;Max_cycle;Signal;HPM_P1;HPM_P2
2023/12/02 00:01:56;;;;;;;4.93;2.45;;;0.90;99.90;;;;;;5055515;28;20113;-73
2023/12/02 00:04:22;;;;;;;4.05;2.53;;;0.90;99.90;;;;;;5037679;28;20032;-73
2023/12/02 00:06:47;;;;;;;3.70;2.50;;;0.90;99.90;;;;;;5055372;28;20032;-73
2023/12/02 00:09:13;;;;;;;3.28;1.60;;;0.90;99.90;;;;;;5055386;28;20033;-73
2023/12/02 00:11:39;;;;;;;4.03;2.22;;;0.90;99.90;;;;;;5055332;28;20025;-73
2023/12/02 00:14:05;;;;;;;4.65;2.20;;;0.90;99.90;;;;;;5055279;28;20029;-73
2023/12/02 00:16:31;;;;;;;3.38;1.98;;;0.90;99.90;;;;;;5054055;28;20044;-73
2023/12/02 00:18:56;;;;;;;3.88;2.25;;;0.90;99.90;;;;;;5053796;28;20025;-73
2023/12/02 00:21:22;;;;;;;5.10;2.60;;;0.90;99.90;;;;;;5054104;28;20074;-73
2023/12/02 00:23:48;;;;;;;6.82;3.70;;;0.90;99.90;;;;;;5055100;28;20506;-73
2023/12/02 00:26:13;;;;;;;6.68;3.58;;;0.90;99.90;;;;;;5053995;28;20029;-73
2023/12/02 00:28:39;;;;;;;4.03;2.60;;;0.80;99.90;;;;;;5053529;28;20026;-73
2023/12/02 00:31:05;;;;;;;4.50;2.75;;;0.80;99.90;;;;;;5054946;28;20036;-73
2023/12/02 00:33:31;;;;;;;4.82;2.65;;;0.90;99.90;;;;;;5053655;28;20049;-73
2023/12/02 00:35:57;;;;;;;4.50;2.60;;;0.80;99.90;;;;;;5053556;28;20480;-73
2023/12/02 00:38:22;;;;;;;3.63;2.28;;;0.80;99.90;;;;;;5054973;28;20052;-73
2023/12/02 00:40:48;;;;;;;3.15;2.10;;;0.90;99.90;;;;;;5053462;28;20079;-73
2023/12/02 00:43:14;;;;;;;2.80;1.52;;;0.90;99.90;;;;;;5053580;28;20017;-73
2023/12/02 00:45:40;;;;;;;1.80;1.10;;;0.90;99.90;;;;;;5054676;28;20031;-73
2023/12/02 00:48:05;;;;;;;1.17;0.70;;;0.90;99.90;;;;;;5054604;28;20032;-73
2023/12/02 00:50:31;;;;;;;0.98;0.70;;;0.90;99.90;;;;;;5055091;28;20033;-73
2023/12/02 00:52:57;;;;;;;1.85;0.95;;;0.80;99.90;;;;;;5054560;28;20029;-73
2023/12/02 00:55:23;;;;;;;2.10;1.10;;;0.80;99.90;;;;;;5054521;28;20033;-73
2023/12/02 00:57:49;;;;;;;1.83;1.05;;;0.80;99.90;;;;;;5054485;28;20055;-73
2023/12/02 01:00:15;;;;;;;1.73;1.02;;;0.70;99.90;;;;;;5054317;28;20124;-73
2023/12/02 01:02:42;;;;;;;1.20;0.80;;;0.70;99.90;;;;;;5053107;28;20076;-73
2023/12/02 01:05:08;;;;;;;1.77;0.80;;;0.70;99.90;;;;;;5053168;28;20025;-73
2023/12/02 01:07:33;;;;;;;1.15;0.82;;;0.60;99.90;;;;;;5054295;28;20489;-73
2023/12/02 01:09:59;;;;;;;1.48;0.80;;;0.60;99.90;;;;;;5052854;28;20079;-73
2023/12/02 01:12:25;;;;;;;1.50;0.80;;;0.60;99.90;;;;;;5052964;28;20037;-73
2023/12/02 01:14:51;;;;;;;1.50;0.90;;;0.60;99.90;;;;;;5054136;28;20021;-73
2023/12/02 01:17:17;;;;;;;1.42;0.98;;;0.60;99.90;;;;;;5054151;28;20029;-73
2023/12/02 01:19:44;;;;;;;1.67;1.05;;;0.60;99.90;;;;;;5052759;28;20028;-73
2023/12/02 01:22:10;;;;;;;1.50;0.90;;;0.60;99.90;;;;;;5052575;28;20036;-73
2023/12/02 01:24:35;;;;;;;1.98;1.02;;;0.50;99.90;;;;;;5054557;28;20037;-73
2023/12/02 01:27:01;;;;;;;1.25;0.90;;;0.60;99.90;;;;;;5052810;28;20105;-73
2023/12/02 01:29:27;;;;;;;1.63;1.05;;;0.60;99.90;;;;;;5053925;28;20032;-73
2023/12/02 01:31:53;;;;;;;1.30;0.80;;;0.50;99.90;;;;;;5053845;28;20040;-73
2023/12/02 01:34:18;;;;;;;1.60;1.10;;;0.50;99.90;;;;;;5053198;28;20029;-73
2023/12/02 01:36:45;;;;;;;1.50;1.00;;;0.50;99.90;;;;;;5053635;28;20535;-75
2023/12/02 01:39:12;;;;;;;1.70;1.00;;;0.50;99.90;;;;;;5053023;28;20045;-73
2023/12/02 01:41:38;;;;;;;1.25;0.80;;;0.50;99.90;;;;;;5053103;28;20029;-73
2023/12/02 01:44:04;;;;;;;1.52;0.90;;;0.50;99.90;;;;;;5053674;28;20029;-73
2023/12/02 01:46:30;;;;;;;1.10;0.80;;;0.50;99.90;;;;;;5052648;28;20032;-73
2023/12/02 01:49:02;;;;;;;2.08;1.08;;;0.50;99.90;;;;;;5053903;28;20468;-73
2023/12/02 01:51:28;;;;;;;1.33;1.00;;;0.50;99.90;;;;;;5049371;28;20032;-73
2023/12/02 01:53:54;;;;;;;1.98;0.98;;;0.50;99.90;;;;;;5033685;28;20033;-73
2023/12/02 01:56:20;;;;;;;2.75;1.17;;;0.50;99.90;;;;;;5038377;28;20025;-73
2023/12/02 01:58:47;;;;;;;1.58;1.00;;;0.50;99.90;;;;;;5053924;28;20033;-73
2023/12/02 02:01:12;;;;;;;1.70;1.10;;;0.50;99.90;;;;;;5035668;28;20442;-73
2023/12/02 02:03:38;;;;;;;1.35;0.90;;;0.40;99.90;;;;;;5052200;28;20064;-73
2023/12/02 02:06:05;;;;;;;2.00;0.90;;;0.40;99.90;;;;;;5053694;28;20029;-73
2023/12/02 02:08:30;;;;;;;1.98;1.10;;;0.40;99.90;;;;;;5052205;28;20037;-73
2023/12/02 02:10:57;;;;;;;1.17;0.80;;;0.40;99.90;;;;;;5053395;28;20056;-73
2023/12/02 02:13:24;;;;;;;1.50;0.90;;;0.40;99.90;;;;;;5053276;28;20036;-73
2023/12/02 02:15:50;;;;;;;1.42;0.95;;;0.40;99.90;;;;;;5052414;28;20051;-73
2023/12/02 02:18:15;;;;;;;1.38;0.98;;;0.40;99.90;;;;;;5053511;28;20021;-73
2023/12/02 02:20:41;;;;;;;1.95;0.90;;;0.40;99.90;;;;;;5052086;28;20029;-73
2023/12/02 02:23:07;;;;;;;1.80;1.00;;;0.40;99.90;;;;;;5053251;28;20404;-73
2023/12/02 02:25:32;;;;;;;1.90;1.10;;;0.40;99.90;;;;;;5053232;28;20492;-73
2023/12/02 02:27:58;;;;;;;2.28;1.38;;;0.40;99.90;;;;;;5051947;28;20047;-73
2023/12/02 02:30:24;;;;;;;1.50;1.15;;;0.40;99.90;;;;;;5051977;28;20059;-73
2023/12/02 02:32:50;;;;;;;1.38;0.80;;;0.40;99.90;;;;;;5053157;28;20473;-73
2023/12/02 02:35:16;;;;;;;1.45;0.90;;;0.40;99.90;;;;;;5053335;28;20040;-73
2023/12/02 02:37:42;;;;;;;1.95;1.02;;;0.40;99.90;;;;;;5053246;28;20120;-73
2023/12/02 02:40:08;;;;;;;1.58;1.10;;;0.40;99.90;;;;;;5051765;28;20025;-73
2023/12/02 02:42:34;;;;;;;1.58;1.02;;;0.40;99.90;;;;;;5052260;28;20108;-74
2023/12/02 02:44:59;;;;;;;1.48;0.88;;;0.40;99.90;;;;;;5053085;28;20456;-73
2023/12/02 02:47:25;;;;;;;1.40;0.90;;;0.30;99.90;;;;;;5052926;28;20485;-74
2023/12/02 02:49:50;;;;;;;1.00;0.73;;;0.40;99.90;;;;;;5052924;28;20025;-73
2023/12/02 02:52:17;;;;;;;1.58;1.00;;;0.40;99.90;;;;;;5054748;28;20029;-73
2023/12/02 02:54:43;;;;;;;1.85;0.93;;;0.40;99.90;;;;;;5056944;28;20025;-73
2023/12/02 02:57:09;;;;;;;1.77;0.95;;;0.40;99.90;;;;;;5056705;28;20370;-73
2023/12/02 02:59:35;;;;;;;1.52;1.00;;;0.40;99.90;;;;;;5056990;28;20040;-73
2023/12/02 03:02:00;;;;;;;1.58;1.00;;;0.30;99.90;;;;;;5057404;28;20025;-73
2023/12/02 03:04:26;;;;;;;2.00;1.10;;;0.30;99.90;;;;;;5056877;28;20036;-73
2023/12/02 03:06:52;;;;;;;1.00;0.80;;;0.40;99.90;;;;;;5056589;28;20477;-73
2023/12/02 03:09:18;;;;;;;1.23;0.90;;;0.40;99.90;;;;;;5056494;28;20031;-73
2023/12/02 03:11:45;;;;;;;1.48;0.95;;;0.40;99.90;;;;;;5056781;28;20060;-73
2023/12/02 03:14:11;;;;;;;2.25;1.05;;;0.40;99.90;;;;;;5056579;28;20025;-74
2023/12/02 03:16:37;;;;;;;2.03;0.95;;;0.40;99.90;;;;;;5056478;28;20396;-73
2023/12/02 03:19:03;;;;;;;1.42;0.82;;;0.40;99.90;;;;;;5056370;28;20460;-73
2023/12/02 03:21:29;;;;;;;1.20;0.80;;;0.40;99.90;;;;;;5056458;28;20477;-73
2023/12/02 03:23:54;;;;;;;1.40;0.77;;;0.40;99.90;;;;;;5056438;28;20052;-73
2023/12/02 03:26:20;;;;;;;1.35;0.90;;;0.40;99.90;;;;;;5055321;28;20029;-73
2023/12/02 03:28:46;;;;;;;1.20;0.90;;;0.40;99.90;;;;;;5056356;28;20021;-73
2023/12/02 03:31:11;;;;;;;1.35;0.70;;;0.40;99.90;;;;;;5038545;28;20029;-73
2023/12/02 03:33:37;;;;;;;1.98;1.05;;;0.40;99.90;;;;;;5055511;28;20021;-73
2023/12/02 03:36:03;;;;;;;1.35;0.88;;;0.40;99.90;;;;;;5059388;28;20033;-73
2023/12/02 03:38:29;;;;;;;1.73;1.00;;;0.40;99.90;;;;;;5061191;28;20114;-73
2023/12/02 03:40:55;;;;;;;2.13;0.90;;;0.40;99.90;;;;;;5057609;28;20029;-73
2023/12/02 03:43:20;;;;;;;2.53;1.10;;;0.50;99.90;;;;;;5056586;28;20488;-73
2023/12/02 03:45:46;;;;;;;1.85;0.95;;;0.50;99.90;;;;;;5056824;28;20465;-73
2023/12/02 03:48:12;;;;;;;1.92;1.15;;;0.50;99.90;;;;;;5055931;28;20392;-73
2023/12/02 03:50:37;;;;;;;1.45;0.90;;;0.50;99.90;;;;;;5055034;28;20096;-73
2023/12/02 03:53:04;;;;;;;2.40;1.02;;;0.50;99.90;;;;;;5055725;28;20025;-74
2023/12/02 03:55:30;;;;;;;1.23;0.93;;;0.50;99.90;;;;;;5055814;28;20033;-73
2023/12/02 03:57:55;;;;;;;1.15;0.80;;;0.50;99.90;;;;;;5037873;28;20045;-73
2023/12/02 04:00:21;;;;;;;1.70;1.00;;;0.50;99.90;;;;;;5055722;28;20029;-73
2023/12/02 04:02:47;;;;;;;1.50;0.90;;;0.50;99.90;;;;;;5055844;28;20029;-73
2023/12/02 04:05:15;;;;;;;1.17;0.88;;;0.50;99.90;;;;;;5055299;28;20176;-73
2023/12/02 04:07:41;;;;;;;1.50;1.00;;;0.40;99.90;;;;;;5054341;28;20041;-73
2023/12/02 04:10:08;;;;;;;1.50;0.93;;;0.40;99.90;;;;;;5055448;28;20025;-73
2023/12/02 04:12:34;;;;;;;1.25;0.80;;;0.40;99.90;;;;;;5037662;28;20443;-73
2023/12/02 04:15:00;;;;;;;1.60;1.00;;;0.40;99.90;;;;;;5055658;28;20389;-73
2023/12/02 04:17:26;;;;;;;1.95;1.27;;;0.40;99.90;;;;;;5055226;28;20029;-73
2023/12/02 04:19:52;;;;;;;2.20;1.40;;;0.40;99.90;;;;;;5055245;28;20021;-73
2023/12/02 04:22:19;;;;;;;1.95;1.20;;;0.40;99.90;;;;;;5055041;28;20539;-73
2023/12/02 04:24:46;;;;;;;1.52;1.20;;;0.40;99.90;;;;;;5055462;28;20039;-73
2023/12/02 04:27:11;;;;;;;1.05;0.70;;;0.40;99.90;;;;;;5053986;28;20029;-73
2023/12/02 04:29:41;;;;;;;1.50;0.80;;;0.40;99.90;;;;;;5054994;28;20048;-73
2023/12/02 04:32:06;;;;;;;1.10;0.70;;;0.40;99.90;;;;;;5055353;28;20052;-73
2023/12/02 04:34:33;;;;;;;1.35;0.90;;;0.40;99.90;;;;;;5054966;28;20032;-73
2023/12/02 04:36:58;;;;;;;0.90;0.75;;;0.40;99.90;;;;;;5054847;28;20029;-73
2023/12/02 04:39:25;;;;;;;1.23;0.82;;;0.40;99.90;;;;;;5037652;28;20029;-73
2023/12/02 04:41:51;;;;;;;1.85;0.88;;;0.40;99.90;;;;;;5054760;28;20043;-73
2023/12/02 04:44:17;;;;;;;0.80;0.65;;;0.30;99.90;;;;;;5054806;28;20373;-73
2023/12/02 04:46:43;;;;;;;1.33;0.80;;;0.30;99.90;;;;;;5054721;28;20036;-73
2023/12/02 04:49:08;;;;;;;1.30;0.95;;;0.30;99.90;;;;;;5054649;28;20037;-73
2023/12/02 04:51:34;;;;;;;1.83;1.08;;;0.30;99.90;;;;;;5054641;28;20028;-73
2023/12/02 04:54:00;;;;;;;1.83;0.80;;;0.30;99.90;;;;;;5053312;28;20060;-73
2023/12/02 04:56:25;;;;;;;1.42;0.70;;;0.30;99.90;;;;;;5053260;28;20119;-73
2023/12/02 04:58:51;;;;;;;1.80;1.10;;;0.30;99.90;;;;;;5053164;28;20079;-73
2023/12/02 05:01:17;;;;;;;1.95;1.25;;;0.30;99.90;;;;;;5054386;28;20032;-73
2023/12/02 05:03:43;;;;;;;2.00;1.13;;;0.30;99.90;;;;;;5053229;28;20437;-73
2023/12/02 05:06:16;;;;;;;1.75;0.90;;;0.30;99.90;;;;;;5054420;28;20025;-73
2023/12/02 05:08:44;;;;;;;2.72;0.90;;;0.30;99.90;;;;;;5054272;28;20037;-73
2023/12/02 05:11:20;;;;;;;1.13;0.85;;;0.30;99.90;;;;;;5054338;28;20036;-73
2023/12/02 05:13:47;;;;;;;1.98;0.93;;;0.20;99.90;;;;;;5054659;28;20032;-73
2023/12/02 05:16:13;;;;;;;1.77;1.00;;;0.20;99.90;;;;;;5053178;28;20075;-73
2023/12/02 05:18:42;;;;;;;1.40;0.80;;;0.20;99.90;;;;;;5052836;28;20033;-73
2023/12/02 05:21:11;;;;;;;2.03;0.90;;;0.20;99.90;;;;;;5054069;28;20021;-73
2023/12/02 05:23:38;;;;;;;2.00;0.98;;;0.20;99.90;;;;;;5054026;28;20033;-73
2023/12/02 05:26:04;;;;;;;5.68;3.10;;;0.20;99.90;;;;;;5053973;28;20024;-74
2023/12/02 05:28:30;;;;;;;3.33;2.00;;;0.20;99.90;;;;;;5053920;28;20029;-73
2023/12/02 05:30:55;;;;;;;2.33;1.67;;;0.20;99.90;;;;;;5053927;28;20104;-73
2023/12/02 05:33:22;;;;;;;1.50;1.02;;;0.20;99.90;;;;;;5053884;28;20481;-73
2023/12/02 05:35:48;;;;;;;1.45;1.10;;;0.20;99.90;;;;;;5054286;28;20025;-73
2023/12/02 05:38:14;;;;;;;3.47;2.05;;;0.20;99.90;;;;;;5053734;28;20021;-73
2023/12/02 05:40:40;;;;;;;3.22;2.30;;;0.20;99.90;;;;;;5053746;28;20112;-73
2023/12/02 05:43:06;;;;;;;2.03;1.63;;;0.20;99.90;;;;;;5051831;28;20059;-73
2023/12/02 05:45:31;;;;;;;3.47;1.98;;;0.20;99.90;;;;;;5052628;28;20021;-73
2023/12/02 05:47:57;;;;;;;5.22;2.70;;;0.20;99.90;;;;;;5053226;28;20029;-74
2023/12/02 05:50:22;;;;;;;5.38;2.35;;;0.20;99.90;;;;;;5053683;28;20102;-73
2023/12/02 05:52:48;;;;;;;4.25;2.47;;;0.20;99.90;;;;;;5053539;28;20029;-73
2023/12/02 05:55:14;;;;;;;17.15;8.30;;;0.30;99.90;;;;;;5053714;28;20033;-73
2023/12/02 05:57:42;;;;;;;3.67;2.30;;;0.30;99.90;;;;;;5053450;28;20083;-73
2023/12/02 06:00:07;;;;;;;4.03;2.40;;;0.30;99.90;;;;;;5052079;28;20048;-74
2023/12/02 06:02:33;;;;;;;3.40;1.95;;;0.30;99.90;;;;;;5053968;28;20025;-73
2023/12/02 06:04:59;;;;;;;3.20;1.70;;;0.20;99.90;;;;;;5053496;28;20052;-73
2023/12/02 06:07:24;;;;;;;10.48;5.63;;;0.20;99.90;;;;;;5052465;28;20389;-74
2023/12/02 06:09:50;;;;;;;3.55;1.80;;;0.20;99.90;;;;;;5052124;28;20500;-73
2023/12/02 06:12:15;;;;;;;3.40;1.77;;;0.20;99.90;;;;;;5053705;28;20028;-73
2023/12/02 06:14:41;;;;;;;2.15;1.48;;;0.20;99.90;;;;;;5053277;28;20040;-73
2023/12/02 06:17:07;;;;;;;2.60;1.20;;;0.20;99.90;;;;;;5053163;28;20033;-73
2023/12/02 06:19:32;;;;;;;2.22;1.38;;;0.20;99.90;;;;;;5053222;28;20056;-73
2023/12/02 06:21:58;;;;;;;3.47;2.08;;;0.20;99.90;;;;;;5053201;28;20040;-73
2023/12/02 06:24:24;;;;;;;3.22;1.70;;;0.20;99.90;;;;;;5051946;28;20033;-73
2023/12/02 06:26:50;;;;;;;2.42;1.38;;;0.10;99.90;;;;;;5054279;28;20104;-73
2023/12/02 06:29:15;;;;;;;4.70;2.30;;;0.10;99.90;;;;;;5057299;28;20076;-74
2023/12/02 06:31:41;;;;;;;5.60;3.55;;;0.10;99.90;;;;;;5056141;28;20048;-73
2023/12/02 06:34:07;;;;;;;3.17;1.83;;;0.20;99.90;;;;;;5056092;28;20060;-73
2023/12/02 06:36:32;;;;;;;2.78;1.60;;;0.10;99.90;;;;;;5055790;28;20029;-74
2023/12/02 06:38:58;;;;;;;3.30;2.00;;;0.10;99.90;;;;;;5057064;28;20032;-73
2023/12/02 06:41:24;;;;;;;3.50;2.13;;;0.10;99.90;;;;;;5057091;28;20385;-73
2023/12/02 06:43:50;;;;;;;5.72;3.40;;;0.10;99.90;;;;;;5056915;28;20029;-73
2023/12/02 06:46:23;;;;;;;4.85;3.15;;;0.20;99.90;;;;;;5056922;28;20029;-73
2023/12/02 06:48:49;;;;;;;3.75;2.50;;;0.20;99.90;;;;;;5057015;28;20025;-73
2023/12/02 06:51:15;;;;;;;5.82;2.50;;;0.20;99.90;;;;;;5055620;28;20033;-73
2023/12/02 06:53:41;;;;;;;5.90;2.90;;;0.30;99.90;;;;;;5056817;28;20174;-73
2023/12/02 06:56:17;;;;;;;5.45;3.30;;;0.30;99.90;;;;;;5056818;28;20030;-73
2023/12/02 06:58:42;;;;;;;5.15;3.17;;;0.30;99.90;;;;;;5056723;28;20017;-73
2023/12/02 07:01:08;;;;;;;6.80;4.10;;;0.20;99.90;;;;;;5056843;28;20389;-73
2023/12/02 07:03:34;;;;;;;5.07;2.35;;;0.20;99.90;;;;;;5056684;28;20074;-74
2023/12/02 07:05:59;;;;;;;12.32;5.93;;;0.20;99.90;;;;;;5055365;28;20227;-74
2023/12/02 07:08:25;;;;;;;17.73;6.13;;;0.20;99.90;;;;;;5056476;28;20029;-74
2023/12/02 07:10:51;;;;;;;4.07;2.80;;;0.20;99.90;;;;;;5055355;28;20033;-73
2023/12/02 07:13:16;;;;;;;5.03;2.78;;;0.20;99.90;;;;;;5055392;28;20032;-73
2023/12/02 07:15:42;;;;;;;4.65;2.78;;;0.20;99.90;;;;;;5056464;28;20068;-73
2023/12/02 07:18:08;;;;;;;4.43;2.30;;;0.20;99.90;;;;;;5055128;28;20083;-70
2023/12/02 07:20:33;;;;;;;4.53;2.72;;;0.20;99.90;;;;;;5054571;28;20131;-72
2023/12/02 07:23:00;;;;;;;4.35;3.00;;;0.20;99.90;;;;;;5055194;28;20129;-72
2023/12/02 07:25:25;;;;;;;3.85;2.47;;;0.10;99.90;;;;;;5056549;28;20036;-72
2023/12/02 07:27:51;;;;;;;3.65;2.28;;;0.10;99.90;;;;;;5056228;28;20029;-73
2023/12/02 07:30:17;;;;;;;7.25;5.35;;;0.20;99.90;;;;;;5054781;28;20025;-72
2023/12/02 07:32:46;;;;;;;11.43;7.72;;;0.10;99.90;;;;;;5056670;28;20071;-72
2023/12/02 07:35:11;;;;;;;11.48;6.82;;;0.10;99.90;;;;;;5056045;28;20047;-72
2023/12/02 07:37:37;;;;;;;11.32;6.95;;;0.10;99.90;;;;;;5054837;28;20102;-72
2023/12/02 07:40:03;;;;;;;29.92;15.23;;;0.10;99.90;;;;;;5054557;28;20028;-72
2023/12/02 07:42:29;;;;;;;37.20;15.98;;;0.10;99.90;;;;;;5054645;28;20052;-72
2023/12/02 07:44:54;;;;;;;47.03;22.88;;;0.10;99.90;;;;;;5037993;28;20487;-72
2023/12/02 07:47:20;;;;;;;23.85;11.70;;;0.10;99.90;;;;;;5054591;28;20056;-72
2023/12/02 07:49:46;;;;;;;14.63;7.38;;;0.10;99.90;;;;;;5055719;28;20029;-72
2023/12/02 07:52:11;;;;;;;5.18;3.03;;;0.10;99.90;;;;;;5055475;28;20063;-72
2023/12/02 07:54:37;;;;;;;4.63;3.22;;;0.20;99.90;;;;;;5054543;28;20029;-73
2023/12/02 07:57:03;;;;;;;6.22;3.90;;;0.20;99.90;;;;;;5055344;28;20029;-73
2023/12/02 07:59:28;;;;;;;13.90;8.27;;;0.20;99.90;;;;;;5054177;28;20032;-73
2023/12/02 08:01:54;;;;;;;7.90;5.00;;;0.20;99.90;;;;;;5054278;28;20029;-72
2023/12/02 08:04:19;;;;;;;7.03;3.95;;;0.20;99.90;;;;;;5055337;28;20029;-73
2023/12/02 08:06:45;;;;;;;14.07;6.22;;;0.20;99.90;;;;;;5052680;28;20111;-73
2023/12/02 08:09:14;;;;;;;7.85;4.82;;;0.20;99.90;;;;;;5054093;28;20033;-72
2023/12/02 08:11:41;;;;;;;6.28;3.47;;;0.30;99.90;;;;;;5055699;28;20171;-72
2023/12/02 08:14:06;;;;;;;8.43;4.10;;;0.30;99.90;;;;;;5055184;28;20035;-73
2023/12/02 08:16:32;;;;;;;17.05;7.82;;;0.30;99.90;;;;;;5051161;28;20108;-73
2023/12/02 08:18:57;;;;;;;10.55;5.22;;;0.30;99.90;;;;;;5055198;28;20542;-73
2023/12/02 08:21:23;;;;;;;21.70;10.50;;;0.30;99.90;;;;;;5055179;28;20550;-72
2023/12/02 08:23:49;;;;;;;16.75;8.98;;;0.30;99.90;;;;;;5055062;28;20071;-73
2023/12/02 08:26:15;;;;;;;7.38;4.45;;;0.30;99.90;;;;;;5055417;28;20154;-72
2023/12/02 08:28:42;;;;;;;5.80;3.50;;;0.30;99.90;;;;;;5054988;28;20116;-72
2023/12/02 08:31:08;;;;;;;9.73;5.45;;;0.30;99.90;;;;;;5055067;28;20075;-72
2023/12/02 08:33:34;;;;;;;9.90;6.38;;;0.30;99.90;;;;;;5055235;28;20424;-72
2023/12/02 08:35:59;;;;;;;13.95;7.90;;;0.30;99.90;;;;;;5055294;28;20033;-72
2023/12/02 08:38:25;;;;;;;9.63;4.55;;;0.30;99.90;;;;;;5055323;28;20162;-72
2023/12/02 08:40:51;;;;;;;7.05;4.18;;;0.30;99.90;;;;;;5055127;28;20021;-72
2023/12/02 08:43:16;;;;;;;5.30;3.67;;;0.30;99.90;;;;;;5054843;28;20028;-72
2023/12/02 08:45:42;;;;;;;5.25;3.53;;;0.40;99.90;;;;;;5054689;28;20439;-72
2023/12/02 08:48:08;;;;;;;5.97;3.20;;;0.40;99.90;;;;;;5053970;28;20385;-72
2023/12/02 08:50:34;;;;;;;5.43;3.67;;;0.40;99.90;;;;;;5054668;28;20505;-72
2023/12/02 08:52:59;;;;;;;3.22;2.47;;;0.50;99.90;;;;;;5020658;28;20039;-72
2023/12/02 08:55:25;;;;;;;5.55;2.67;;;0.50;99.90;;;;;;5036505;28;20124;-72
2023/12/02 08:57:51;;;;;;;4.25;2.88;;;0.50;99.90;;;;;;5054466;28;20048;-72
2023/12/02 09:00:17;;;;;;;8.68;5.40;;;0.60;99.90;;;;;;5037043;28;20036;-72
2023/12/02 09:02:43;;;;;;;5.68;3.72;;;0.60;99.90;;;;;;5054639;28;20584;-72
2023/12/02 09:05:09;;;;;;;5.43;3.20;;;0.60;99.90;;;;;;5054639;28;20052;-72
2023/12/02 09:07:34;;;;;;;7.22;4.10;;;0.60;99.90;;;;;;5054296;28;20029;-72
2023/12/02 09:10:01;;;;;;;13.05;6.57;;;0.60;99.90;;;;;;5054252;28;20104;-72
2023/12/02 09:12:26;;;;;;;13.02;6.35;;;0.50;99.90;;;;;;5054522;28;20025;-72
2023/12/02 09:15:22;;;;;;;10.23;5.72;;;0.50;99.90;;;;;;5052907;28;20025;-72
2023/12/02 09:18:10;;;;;;;12.57;6.78;;;0.50;99.90;;;;;;5049654;28;20051;-72
2023/12/02 09:20:46;;;;;;;31.92;14.23;;;0.50;99.90;;;;;;5054318;28;20061;-72
2023/12/02 09:23:14;;;;;;;30.48;13.88;;;0.50;99.90;;;;;;5053956;28;20033;-72
2023/12/02 09:25:41;;;;;;;16.98;7.80;;;0.50;99.90;;;;;;5054006;28;20021;-72
2023/12/02 09:28:07;;;;;;;11.35;5.50;;;0.50;99.90;;;;;;5054153;28;20046;-72
2023/12/02 09:30:35;;;;;;;9.25;4.40;;;0.50;99.90;;;;;;5051304;28;20100;-72
2023/12/02 09:33:01;;;;;;;4.95;2.90;;;0.50;99.90;;;;;;5052695;28;20025;-72
2023/12/02 09:35:27;;;;;;;4.55;3.03;;;0.50;99.90;;;;;;5054001;28;20354;-72
2023/12/02 09:37:56;;;;;;;6.85;3.65;;;0.40;99.90;;;;;;5051388;28;20029;-72
2023/12/02 09:40:25;;;;;;;4.60;2.78;;;0.40;99.90;;;;;;5052272;28;20099;-72
2023/12/02 09:43:13;;;;;;;5.38;2.95;;;0.40;99.90;;;;;;5053696;28;20024;-72
2023/12/02 09:45:45;;;;;;;4.72;2.90;;;0.40;99.90;;;;;;5053572;28;20017;-72
2023/12/02 09:48:22;;;;;;;6.03;3.03;;;0.40;99.90;;;;;;5052693;28;20033;-72
2023/12/02 09:51:18;;;;;;;15.32;8.68;;;0.40;99.90;;;;;;5053597;28;20017;-72
2023/12/02 09:54:09;;;;;;;9.48;5.32;;;0.30;99.90;;;;;;5052536;28;20025;-72
2023/12/02 09:56:55;;;;;;;9.10;4.30;;;0.40;99.90;;;;;;5053714;28;20025;-72
2023/12/02 09:59:46;;;;;;;7.65;4.35;;;0.40;99.90;;;;;;5053479;28;20017;-72
2023/12/02 10:02:37;;;;;;;6.63;4.07;;;0.40;99.90;;;;;;5051993;28;20484;-72
2023/12/02 10:05:12;;;;;;;7.80;5.57;;;0.40;99.90;;;;;;5053732;28;20025;-72
2023/12/02 10:07:54;;;;;;;7.32;4.72;;;0.40;99.90;;;;;;5052477;28;20043;-72
2023/12/02 10:10:25;;;;;;;9.45;5.68;;;0.50;99.90;;;;;;5053296;28;20028;-72
2023/12/02 10:12:51;;;;;;;8.88;5.45;;;0.50;99.90;;;;;;5053946;28;20053;-72
2023/12/02 10:15:22;;;;;;;10.27;5.40;;;0.50;99.90;;;;;;5052001;28;20036;-72
2023/12/02 10:17:51;;;;;;;;;;;0.50;99.90;;;;;;5054085;28;20074;-72
2023/12/02 10:20:19;;;;;;;12.55;5.40;;;0.50;99.90;;;;;;5053594;28;20011;-72
2023/12/02 10:22:49;;;;;;;17.65;7.55;;;0.50;99.90;;;;;;5053491;28;20036;-72
2023/12/02 10:25:40;;;;;;;21.45;9.77;;;0.50;99.90;;;;;;5053163;28;20025;-72
2023/12/02 10:28:17;;;;;;;19.05;11.73;;;0.60;99.90;;;;;;5051878;28;20033;-71
2023/12/02 10:30:49;;;;;;;14.73;7.32;;;0.60;99.90;;;;;;5053469;28;20052;-72
2023/12/02 10:33:28;;;;;;;10.57;5.68;;;0.60;99.90;;;;;;5053342;28;20470;-71
2023/12/02 10:36:05;;;;;;;12.10;6.40;;;0.50;99.90;;;;;;5053054;28;20477;-72
2023/12/02 10:38:34;;;;;;;7.35;4.28;;;0.50;99.90;;;;;;5053250;28;20021;-72
2023/12/02 10:41:26;;;;;;;11.77;6.20;;;0.50;99.90;;;;;;5053039;28;20074;-72
2023/12/02 10:43:58;;;;;;;18.38;10.52;;;0.50;99.90;;;;;;5053321;28;20028;-72
2023/12/02 10:46:24;;;;;;;11.77;6.32;;;0.40;99.90;;;;;;5051923;28;20063;-71
2023/12/02 10:48:54;;;;;;;8.98;5.55;;;0.40;99.90;;;;;;5052974;28;20538;-72
2023/12/02 10:51:22;;;;;;;8.05;4.90;;;0.40;99.90;;;;;;5052919;28;20058;-72
2023/12/02 10:53:49;;;;;;;7.88;4.32;;;0.40;99.90;;;;;;5052927;28;20388;-72
2023/12/02 10:56:23;;;;;;;8.43;4.93;;;0.40;99.90;;;;;;5051744;28;20087;-72
2023/12/02 10:58:52;;;;;;;7.72;5.05;;;0.40;99.90;;;;;;5052853;28;20381;-71
2023/12/02 11:01:58;;;;;;;7.20;4.50;;;0.40;99.90;;;;;;5052817;28;20058;-71
2023/12/02 11:04:34;;;;;;;6.97;4.47;;;0.40;99.90;;;;;;5053409;28;20540;-71
2023/12/02 11:07:07;;;;;;;9.07;5.43;;;0.40;99.90;;;;;;5052881;28;20025;-71
2023/12/02 11:09:39;;;;;;;9.35;4.68;;;0.40;99.90;;;;;;5052719;28;20025;-72
2023/12/02 11:12:26;;;;;;;7.93;4.65;;;0.40;99.90;;;;;;5053319;28;20082;-71
2023/12/02 11:14:57;;;;;;;8.55;4.40;;;0.30;99.90;;;;;;5053883;28;20025;-71
2023/12/02 11:17:41;;;;;;;8.85;5.22;;;0.30;99.90;;;;;;5056466;28;20079;-71
2023/12/02 11:20:20;;;;;;;7.32;5.05;;;0.30;99.90;;;;;;5056590;28;20520;-74
2023/12/02 11:23:11;;;;;;;8.40;5.07;;;0.30;99.90;;;;;;5056389;28;20048;-74
2023/12/02 11:25:59;;;;;;;7.57;4.03;;;0.30;99.90;;;;;;5056498;28;20021;-74
2023/12/02 11:28:43;;;;;;;6.93;4.25;;;0.20;99.90;;;;;;5056484;28;20384;-73
2023/12/02 11:31:36;;;;;;;5.47;3.80;;;0.30;99.90;;;;;;5056184;28;20473;-74
2023/12/02 11:34:32;;;;;;;7.72;4.28;;;0.30;99.90;;;;;;5056188;28;20031;-73
2023/12/02 11:37:26;;;;;;;7.53;4.35;;;0.30;99.90;;;;;;5056288;28;20372;-74
2023/12/02 11:40:13;;;;;;;13.23;7.40;;;0.30;99.90;;;;;;5055844;28;20090;-73
2023/12/02 11:42:51;;;;;;;7.95;5.05;;;0.30;99.90;;;;;;5056171;28;20079;-73
2023/12/02 11:45:24;;;;;;;7.93;4.75;;;0.30;99.90;;;;;;5054505;28;20025;-73
2023/12/02 11:48:20;;;;;;;9.20;4.65;;;0.30;99.90;;;;;;5055966;28;20031;-74
2023/12/02 11:50:51;;;;;;;7.55;4.40;;;0.30;99.90;;;;;;5019499;28;20132;-74
2023/12/02 11:53:39;;;;;;;7.60;4.55;;;0.30;99.90;;;;;;5054541;28;20031;-74
2023/12/02 11:56:25;;;;;;;11.73;6.82;;;0.30;99.90;;;;;;5055688;28;20477;-74
2023/12/02 11:58:51;;;;;;;14.57;9.05;;;0.30;99.90;;;;;;5055535;28;20511;-73
2023/12/02 12:01:48;;;;;;;17.60;9.75;;;0.30;99.90;;;;;;5055782;28;20021;-74
2023/12/02 12:04:16;;;;;;;7.57;4.72;;;0.20;99.90;;;;;;5055915;28;20021;-74
2023/12/02 12:06:50;;;;;;;9.55;5.88;;;0.20;99.90;;;;;;5055899;28;20024;-73
2023/12/02 12:09:37;;;;;;;10.43;6.20;;;0.10;99.90;;;;;;5055430;28;20116;-73
2023/12/02 12:12:07;;;;;;;10.00;4.65;;;0.00;99.90;;;;;;5055740;28;20025;-74
2023/12/02 12:14:36;;;;;;;8.60;5.45;;;0.00;99.90;;;;;;5054079;28;20473;-74
2023/12/02 12:17:02;;;;;;;10.05;5.70;;;-0.10;99.90;;;;;;5055217;28;20126;-73
2023/12/02 12:19:28;;;;;;;23.05;11.93;;;-0.10;99.90;;;;;;5055214;28;20440;-73
2023/12/02 12:21:55;;;;;;;18.25;9.23;;;-0.20;99.90;;;;;;5055795;28;20096;-74
2023/12/02 12:24:21;;;;;;;11.35;6.65;;;-0.20;99.90;;;;;;5054643;28;20033;-74
2023/12/02 12:26:46;;;;;;;13.70;7.75;;;-0.10;99.90;;;;;;5055114;28;20037;-74
2023/12/02 12:29:12;;;;;;;12.95;6.40;;;-0.20;99.90;;;;;;5054014;28;20100;-73
2023/12/02 12:31:38;;;;;;;15.45;7.50;;;-0.20;99.90;;;;;;5055637;28;20117;-73
2023/12/02 12:34:10;;;;;;;10.50;5.50;;;-0.20;99.90;;;;;;5055012;28;20415;-73
2023/12/02 12:36:38;;;;;;;9.70;4.35;;;-0.20;99.90;;;;;;5054918;28;20029;-74
2023/12/02 12:39:05;;;;;;;9.18;5.38;;;-0.30;99.90;;;;;;5054976;28;20021;-73
2023/12/02 12:41:31;;;;;;;11.10;5.60;;;-0.30;99.90;;;;;;5053676;28;20033;-73
2023/12/02 12:43:59;;;;;;;11.65;6.35;;;-0.30;99.90;;;;;;5054802;28;20063;-73
2023/12/02 12:46:28;;;;;;;10.73;5.45;;;-0.30;99.90;;;;;;5055041;28;20366;-73
2023/12/02 12:48:54;;;;;;;11.40;6.15;;;-0.30;99.90;;;;;;5054531;28;20021;-73
2023/12/02 12:51:22;;;;;;;14.25;6.93;;;-0.30;99.90;;;;;;5054598;28;20029;-73
2023/12/02 12:54:00;;;;;;;13.88;7.60;;;-0.40;99.90;;;;;;5055141;28;20047;-73
2023/12/02 12:56:38;;;;;;;14.60;7.70;;;-0.40;99.90;;;;;;5054817;28;20052;-73
2023/12/02 12:59:05;;;;;;;27.17;15.35;;;-0.40;99.90;;;;;;5054621;28;20388;-73
2023/12/02 13:01:33;;;;;;;18.58;10.93;;;-0.30;99.90;;;;;;5053211;28;20033;-73
2023/12/02 13:04:09;;;;;;;12.98;7.20;;;-0.30;99.90;;;;;;5054486;28;20029;-73